createdAt,value
2022-11-19T00:00:41.047Z,101259.66
2022-11-19T00:03:10.810Z,101263.03
2022-11-19T00:05:42.345Z,101256.94
2022-11-19T00:08:19.547Z,101270.56
2022-11-19T00:10:49.980Z,101269.31
2022-11-19T00:13:17.275Z,101266.50
2022-11-19T00:15:47.084Z,101268.19
2022-11-19T00:18:16.835Z,101267.84
2022-11-19T00:20:46.536Z,101272.91
2022-11-19T00:23:18.907Z,101276.16
2022-11-19T00:25:48.595Z,101272.53
2022-11-19T00:28:18.307Z,101269.06
2022-11-19T00:30:48.806Z,101274.91
2022-11-19T00:33:18.664Z,101268.81
2022-11-19T00:35:48.376Z,101279.88
2022-11-19T00:38:20.736Z,101277.13
2022-11-19T00:40:50.443Z,101268.47
2022-11-19T00:43:32.604Z,101283.91
2022-11-19T00:46:02.368Z,101288.84
2022-11-19T00:48:32.057Z,101288.63
2022-11-19T00:51:02.197Z,101289.06
2022-11-19T00:53:34.464Z,101293.09
2022-11-19T00:56:05.103Z,101295.34
2022-11-19T00:58:34.798Z,101295.88
2022-11-19T01:01:04.525Z,101304.31
2022-11-19T01:03:34.967Z,101304.16
2022-11-19T01:06:04.684Z,101304.81
2022-11-19T01:08:37.275Z,101308.09
2022-11-19T01:11:08.652Z,101310.44
2022-11-19T01:13:39.078Z,101311.22
2022-11-19T01:16:11.676Z,101313.69
2022-11-19T01:18:42.455Z,101303.34
2022-11-19T01:21:14.224Z,101315.38
2022-11-19T01:23:47.545Z,101326.78
2022-11-19T01:26:18.342Z,101333.75
2022-11-19T01:28:48.694Z,101332.06
2022-11-19T01:31:20.816Z,101335.31
2022-11-19T01:33:51.311Z,101340.38
2022-11-19T01:36:23.076Z,101354.25
2022-11-19T01:38:56.286Z,101349.72
2022-11-19T01:41:28.280Z,101356.59
2022-11-19T01:44:00.865Z,101368.50
2022-11-19T01:46:33.484Z,101358.94
2022-11-19T01:49:08.304Z,101365.91
2022-11-19T01:51:40.919Z,101357.25
2022-11-19T01:54:18.748Z,101376.28
2022-11-19T01:56:48.497Z,101372.66
2022-11-19T01:59:21.539Z,101376.69
2022-11-19T02:01:51.557Z,101381.59
2022-11-19T02:04:22.124Z,101384.84
2022-11-19T02:06:52.140Z,101392.38
2022-11-19T02:09:25.060Z,101390.44
2022-11-19T02:12:09.662Z,101388.66
2022-11-19T02:15:07.486Z,101400.56
2022-11-19T02:17:53.982Z,101398.38
2022-11-19T02:20:44.332Z,101398.91
2022-11-19T02:23:56.140Z,101413.41
2022-11-19T02:26:58.288Z,101399.19
2022-11-19T02:29:53.199Z,101419.88
2022-11-19T02:32:30.968Z,101404.09
2022-11-19T02:35:06.794Z,101405.91
2022-11-19T02:37:44.844Z,101426.63
2022-11-19T02:40:22.938Z,101429.09
2022-11-19T02:42:59.762Z,101421.75
2022-11-19T02:45:38.101Z,101420.56
2022-11-19T02:48:13.183Z,101425.63
2022-11-19T02:50:48.043Z,101418.50
2022-11-19T02:53:17.770Z,101426.28
2022-11-19T02:56:10.539Z,101425.09
2022-11-19T02:58:56.317Z,101424.84
2022-11-19T03:01:47.810Z,101437.66
2022-11-19T03:04:34.416Z,101436.50
2022-11-19T03:07:07.933Z,101428.72
2022-11-19T03:09:44.232Z,101426.78
2022-11-19T03:12:21.881Z,101430.94
2022-11-19T03:15:10.513Z,101432.38
2022-11-19T03:17:56.757Z,101426.00
2022-11-19T03:20:33.037Z,101440.63
2022-11-19T03:23:07.941Z,101449.03
2022-11-19T03:25:42.520Z,101443.72
2022-11-19T03:28:16.599Z,101441.13
2022-11-19T03:30:49.193Z,101446.31
2022-11-19T03:33:25.779Z,101452.28
2022-11-19T03:35:58.862Z,101441.94
2022-11-19T03:38:32.468Z,101454.06
2022-11-19T03:41:04.288Z,101458.50
2022-11-19T03:43:40.756Z,101455.25
2022-11-19T03:46:17.182Z,101466.25
2022-11-19T03:48:52.927Z,101471.53
2022-11-19T03:51:25.187Z,101474.78
2022-11-19T03:53:55.806Z,101473.75
2022-11-19T03:56:29.552Z,101474.50
2022-11-19T03:59:02.002Z,101485.66
2022-11-19T04:01:33.691Z,101494.16
2022-11-19T04:04:18.873Z,101492.22
2022-11-19T04:06:48.607Z,101488.47
2022-11-19T04:09:19.083Z,101498.69
2022-11-19T04:14:17.498Z,101501.00
2022-11-19T04:16:47.413Z,101499.06
2022-11-19T04:19:20.724Z,101499.72
2022-11-19T04:21:50.879Z,101503.72
2022-11-19T04:24:20.741Z,101504.47
2022-11-19T04:26:50.444Z,101513.13
2022-11-19T04:29:20.473Z,101505.25
2022-11-19T04:31:50.456Z,101513.03
2022-11-19T04:34:22.907Z,101513.78
2022-11-19T04:36:52.621Z,101513.50
2022-11-19T04:39:22.618Z,101515.06
2022-11-19T04:41:52.501Z,101517.53
2022-11-19T04:44:22.257Z,101525.94
2022-11-19T04:46:51.993Z,101530.03
2022-11-19T04:49:24.421Z,101530.84
2022-11-19T04:51:54.205Z,101521.25
2022-11-19T04:54:23.952Z,101531.59
2022-11-19T04:56:53.691Z,101533.13
2022-11-19T04:59:23.394Z,101537.41
2022-11-19T05:01:53.144Z,101527.94
2022-11-19T05:04:25.673Z,101529.53
2022-11-19T05:06:55.453Z,101532.88
2022-11-19T05:09:25.199Z,101532.88
2022-11-19T05:11:54.936Z,101537.28
2022-11-19T05:14:28.911Z,101534.53
2022-11-19T05:17:00.167Z,101536.09
2022-11-19T05:19:32.566Z,101532.44
2022-11-19T05:22:02.271Z,101533.09
2022-11-19T05:24:31.985Z,101542.38
2022-11-19T05:27:01.697Z,101534.50
2022-11-19T05:29:31.405Z,101525.06
2022-11-19T05:32:01.220Z,101546.00
2022-11-19T05:34:33.647Z,101557.13
2022-11-19T05:37:03.381Z,101552.44
2022-11-19T05:39:33.070Z,101554.00
2022-11-19T05:42:02.780Z,101552.34
2022-11-19T05:44:32.515Z,101547.66
2022-11-19T05:47:02.203Z,101546.75
2022-11-19T05:49:34.561Z,101550.09
2022-11-19T05:52:04.308Z,101555.25
2022-11-19T05:54:34.092Z,101554.34
2022-11-19T05:57:03.956Z,101557.09
2022-11-19T05:59:33.668Z,101551.91
2022-11-19T06:02:03.400Z,101550.09
2022-11-19T06:04:35.796Z,101549.19
2022-11-19T06:07:05.550Z,101551.66
2022-11-19T06:09:35.475Z,101553.47
2022-11-19T06:12:05.243Z,101558.63
2022-11-19T06:14:34.966Z,101557.56
2022-11-19T06:17:04.711Z,101558.22
2022-11-19T06:19:37.205Z,101572.03
2022-11-19T06:22:06.944Z,101565.06
2022-11-19T06:24:36.654Z,101571.13
2022-11-19T06:27:06.763Z,101567.66
2022-11-19T06:29:36.517Z,101576.28
2022-11-19T06:32:06.546Z,101577.81
2022-11-19T06:34:38.933Z,101585.72
2022-11-19T06:37:08.680Z,101585.09
2022-11-19T06:39:38.365Z,101595.16
2022-11-19T06:42:20.604Z,101600.34
2022-11-19T06:44:50.300Z,101602.91
2022-11-19T06:47:20.082Z,101597.59
2022-11-19T06:49:52.448Z,101602.13
2022-11-19T06:52:22.158Z,101599.44
2022-11-19T06:54:51.876Z,101603.66
2022-11-19T06:57:21.623Z,101617.53
2022-11-19T06:59:51.324Z,101613.09
2022-11-19T07:02:21.678Z,101618.28
2022-11-19T07:04:54.176Z,101614.78
2022-11-19T07:07:24.083Z,101607.81
2022-11-19T07:09:53.899Z,101609.78
2022-11-19T07:12:23.631Z,101615.84
2022-11-19T07:14:53.379Z,101622.81
2022-11-19T07:17:23.116Z,101619.59
2022-11-19T07:19:55.420Z,101630.97
2022-11-19T07:22:25.325Z,101622.19
2022-11-19T07:24:55.037Z,101622.81
2022-11-19T07:27:24.758Z,101615.97
2022-11-19T07:29:54.545Z,101613.38
2022-11-19T07:32:24.435Z,101622.06
2022-11-19T07:34:56.781Z,101627.34
2022-11-19T07:37:26.790Z,101623.72
2022-11-19T07:39:56.533Z,101622.81
2022-11-19T07:42:38.674Z,101633.41
2022-11-19T07:45:09.823Z,101626.59
2022-11-19T07:47:39.567Z,101637.06
2022-11-19T07:50:12.666Z,101624.91
2022-11-19T07:52:42.451Z,101625.03
2022-11-19T07:55:12.813Z,101628.56
2022-11-19T07:57:42.592Z,101632.31
2022-11-19T08:00:13.660Z,101642.16
2022-11-19T08:02:43.376Z,101641.53
2022-11-19T08:05:15.703Z,101645.28
2022-11-19T08:07:45.451Z,101649.69
2022-11-19T08:10:15.179Z,101643.75
2022-11-19T08:13:03.251Z,101639.38
2022-11-19T08:15:33.416Z,101637.94
2022-11-19T08:18:12.685Z,101636.94
2022-11-19T08:20:48.422Z,101639.72
2022-11-19T08:23:18.427Z,101630.47
2022-11-19T08:25:48.342Z,101636.09
2022-11-19T08:28:18.068Z,101641.56
2022-11-19T08:30:47.784Z,101644.31
2022-11-19T08:33:17.488Z,101635.13
2022-11-19T08:35:50.406Z,101637.09
2022-11-19T08:38:20.129Z,101634.50
2022-11-19T08:41:14.404Z,101638.00
2022-11-19T08:43:41.737Z,101640.34
2022-11-19T08:46:11.949Z,101636.22
2022-11-19T08:48:41.634Z,101639.69
2022-11-19T08:51:14.961Z,101649.31
2022-11-19T08:53:44.912Z,101651.09
2022-11-19T08:56:17.997Z,101651.25
2022-11-19T08:58:48.321Z,101646.19
2022-11-19T09:01:19.859Z,101657.19
2022-11-19T09:03:50.009Z,101656.28
2022-11-19T09:06:22.300Z,101661.47
2022-11-19T09:08:52.032Z,101660.56
2022-11-19T09:11:23.434Z,101652.78
2022-11-19T09:13:53.108Z,101667.28
2022-11-19T09:16:22.836Z,101663.66
2022-11-19T09:18:52.707Z,101670.53
2022-11-19T09:21:25.042Z,101672.22
2022-11-19T09:23:54.742Z,101683.63
2022-11-19T09:26:24.455Z,101674.66
2022-11-19T09:28:55.363Z,101671.31
2022-11-19T09:31:25.104Z,101671.31
2022-11-19T09:33:55.660Z,101679.22
2022-11-19T09:36:28.585Z,101680.25
2022-11-19T09:39:02.308Z,101666.41
2022-11-19T09:41:48.783Z,101677.91
2022-11-19T09:44:31.995Z,101677.25
2022-11-19T09:47:09.792Z,101686.09
2022-11-19T09:49:45.341Z,101676.75
2022-11-19T09:52:22.048Z,101677.16
2022-11-19T09:54:55.158Z,101678.56
2022-11-19T09:57:31.032Z,101676.09
2022-11-19T10:00:04.517Z,101679.84
2022-11-19T10:02:34.337Z,101672.38
2022-11-19T10:05:04.268Z,101690.75
2022-11-19T10:07:47.553Z,101682.31
2022-11-19T10:10:34.124Z,101688.66
2022-11-19T10:13:17.169Z,101686.34
2022-11-19T10:15:59.640Z,101688.28
2022-11-19T10:18:40.194Z,101682.47
2022-11-19T10:21:17.326Z,101685.53
2022-11-19T10:23:56.191Z,101687.63
2022-11-19T10:26:34.975Z,101687.09
2022-11-19T10:29:06.548Z,101693.31
2022-11-19T10:31:39.879Z,101694.50
2022-11-19T10:34:17.308Z,101684.47
2022-11-19T10:36:50.942Z,101685.00
2022-11-19T10:39:27.980Z,101695.75
2022-11-19T10:42:04.306Z,101680.44
2022-11-19T10:44:43.295Z,101683.28
2022-11-19T10:47:19.584Z,101674.97
2022-11-19T10:49:56.115Z,101683.13
2022-11-19T10:52:30.104Z,101680.22
2022-11-19T10:55:07.771Z,101680.75
2022-11-19T10:57:37.778Z,101689.66
2022-11-19T11:00:08.471Z,101675.38
2022-11-19T11:02:47.608Z,101674.72
2022-11-19T11:05:19.280Z,101669.75
2022-11-19T11:07:52.661Z,101674.44
2022-11-19T11:10:38.483Z,101664.03
2022-11-19T11:13:23.984Z,101664.28
2022-11-19T11:15:56.764Z,101668.81
2022-11-19T11:18:28.889Z,101666.22
2022-11-19T11:20:59.546Z,101671.53
2022-11-19T11:23:31.110Z,101675.03
2022-11-19T11:26:09.875Z,101670.75
2022-11-19T11:28:39.964Z,101673.47
2022-11-19T11:31:13.672Z,101666.81
2022-11-19T11:33:45.212Z,101666.16
2022-11-19T11:36:18.433Z,101669.78
2022-11-19T11:38:50.426Z,101668.09
2022-11-19T11:44:21.820Z,101657.66
2022-11-19T11:46:53.528Z,101660.75
2022-11-19T11:49:30.383Z,101658.63
2022-11-19T11:52:19.475Z,101649.47
2022-11-19T11:55:00.824Z,101648.81
2022-11-19T11:57:35.932Z,101631.91
2022-11-19T12:00:28.005Z,101625.25
2022-11-19T12:03:03.014Z,101623.91
2022-11-19T12:05:40.497Z,101620.66
2022-11-19T12:08:16.594Z,101628.66
2022-11-19T12:10:54.819Z,101616.25
2022-11-19T12:13:54.919Z,101621.28
2022-11-19T12:16:45.672Z,101617.31
2022-11-19T12:19:35.932Z,101608.06
2022-11-19T12:22:15.632Z,101608.28
2022-11-19T12:25:04.763Z,101598.13
2022-11-19T12:27:40.842Z,101604.44
2022-11-19T12:30:18.533Z,101594.28
2022-11-19T12:33:15.275Z,101597.00
2022-11-19T12:35:57.056Z,101595.66
2022-11-19T12:38:37.107Z,101605.47
2022-11-19T12:41:20.608Z,101614.50
2022-11-19T12:43:56.523Z,101603.34
2022-11-19T12:46:43.326Z,101593.16
2022-11-19T12:49:41.896Z,101604.59
2022-11-19T12:52:32.481Z,101594.31
2022-11-19T12:55:12.767Z,101597.91
2022-11-19T12:57:50.787Z,101598.81
2022-11-19T13:00:22.799Z,101599.72
2022-11-19T13:03:07.407Z,101599.81
2022-11-19T13:05:45.515Z,101598.16
2022-11-19T13:08:21.290Z,101599.72
2022-11-19T13:10:53.844Z,101602.19
2022-11-19T13:13:29.125Z,101602.75
2022-11-19T13:16:03.256Z,101598.34
2022-11-19T13:18:39.054Z,101597.56
2022-11-19T13:21:11.416Z,101596.56
2022-11-19T13:23:45.325Z,101592.25
2022-11-19T13:26:19.356Z,101590.44
2022-11-19T13:28:53.446Z,101584.47
2022-11-19T13:31:33.818Z,101585.47
2022-11-19T13:34:18.535Z,101590.69
2022-11-19T13:36:57.880Z,101587.28
2022-11-19T13:39:34.388Z,101585.56
2022-11-19T13:42:18.792Z,101589.19
2022-11-19T13:44:48.953Z,101588.41
2022-11-19T13:47:25.286Z,101585.00
2022-11-19T13:50:02.628Z,101582.53
2022-11-19T13:52:35.863Z,101581.59
2022-11-19T13:55:07.305Z,101585.81
2022-11-19T13:57:43.492Z,101584.88
2022-11-19T14:00:26.348Z,101578.03
2022-11-19T14:03:20.246Z,101580.50
2022-11-19T14:06:22.774Z,101566.59
2022-11-19T14:09:04.519Z,101577.22
2022-11-19T14:11:53.522Z,101572.91
2022-11-19T14:14:49.484Z,101572.91
2022-11-19T14:17:41.004Z,101568.38
2022-11-19T14:20:51.288Z,101573.81
2022-11-19T14:24:01.159Z,101568.50
2022-11-19T14:27:00.968Z,101562.41
2022-11-19T14:29:56.842Z,101553.59
2022-11-19T14:32:46.361Z,101553.59
2022-11-19T14:35:34.819Z,101548.13
2022-11-19T14:38:17.336Z,101554.13
2022-11-19T14:40:50.248Z,101555.72
2022-11-19T14:43:39.644Z,101553.13
2022-11-19T14:46:27.303Z,101559.13
2022-11-19T14:49:04.485Z,101555.50
2022-11-19T14:51:40.369Z,101550.28
2022-11-19T14:54:31.338Z,101545.09
2022-11-19T14:57:11.937Z,101545.22
2022-11-19T14:59:42.588Z,101536.41
2022-11-19T15:02:25.947Z,101529.38
2022-11-19T15:05:00.980Z,101535.25
2022-11-19T15:08:14.848Z,101534.25
2022-11-19T15:11:06.644Z,101543.63
2022-11-19T15:13:40.731Z,101545.44
2022-11-19T15:16:14.445Z,101533.31
2022-11-19T15:19:10.992Z,101535.25
2022-11-19T15:22:10.859Z,101529.38
2022-11-19T15:24:56.996Z,101532.22
2022-11-19T15:27:41.958Z,101534.91
2022-11-19T15:30:20.844Z,101543.72
2022-11-19T15:33:07.813Z,101533.47
2022-11-19T15:36:06.186Z,101539.56
2022-11-19T15:38:39.976Z,101531.53
2022-11-19T15:41:10.494Z,101535.94
2022-11-19T15:43:46.358Z,101528.13
2022-11-19T15:46:29.917Z,101530.50
2022-11-19T15:49:05.063Z,101533.78
2022-11-19T15:51:41.874Z,101524.06
2022-11-19T15:54:14.862Z,101527.34
2022-11-19T15:56:50.918Z,101529.84
2022-11-19T15:59:23.037Z,101532.22
2022-11-19T16:02:03.911Z,101529.41
2022-11-19T16:04:37.725Z,101524.75
2022-11-19T16:07:10.120Z,101527.13
2022-11-19T16:09:40.888Z,101525.22
2022-11-19T16:12:35.375Z,101517.28
2022-11-19T16:15:17.511Z,101523.28
2022-11-19T16:17:50.546Z,101524.88
2022-11-19T16:20:23.458Z,101522.13
2022-11-19T16:22:59.954Z,101520.22
2022-11-19T16:25:35.905Z,101521.69
2022-11-19T16:28:09.348Z,101528.38
2022-11-19T16:30:47.191Z,101518.75
2022-11-19T16:33:23.224Z,101516.75
2022-11-19T16:35:54.167Z,101510.50
2022-11-19T16:38:30.339Z,101514.69
2022-11-19T16:41:12.867Z,101511.75
2022-11-19T16:43:48.684Z,101517.59
2022-11-19T16:46:21.381Z,101519.19
2022-11-19T16:49:02.662Z,101512.19
2022-11-19T16:51:38.886Z,101512.75
2022-11-19T16:54:11.023Z,101513.53
2022-11-19T16:56:48.229Z,101507.31
2022-11-19T16:59:23.997Z,101510.59
2022-11-19T17:02:00.244Z,101504.50
2022-11-19T17:04:34.519Z,101503.25
2022-11-19T17:07:04.534Z,101501.53
2022-11-19T17:09:41.873Z,101507.41
2022-11-19T17:12:27.585Z,101503.78
2022-11-19T17:15:00.150Z,101511.50
2022-11-19T17:17:42.779Z,101506.97
2022-11-19T17:20:42.457Z,101511.22
2022-11-19T17:23:19.991Z,101503.13
2022-11-19T17:25:51.396Z,101507.38
2022-11-19T17:28:28.410Z,101512.56
2022-11-19T17:30:58.859Z,101515.06
2022-11-19T17:33:32.685Z,101509.88
2022-11-19T17:36:05.168Z,101498.47
2022-11-19T17:38:37.975Z,101504.44
2022-11-19T17:41:08.237Z,101505.84
2022-11-19T17:43:52.403Z,101502.13
2022-11-19T17:46:22.960Z,101505.66
2022-11-19T17:48:53.875Z,101498.06
2022-11-19T17:51:25.060Z,101499.06
2022-11-19T17:53:58.035Z,101508.22
2022-11-19T17:56:30.628Z,101498.06
2022-11-19T17:59:01.208Z,101508.69
2022-11-19T18:01:31.129Z,101509.75
2022-11-19T18:04:00.944Z,101516.03
2022-11-19T18:06:30.728Z,101513.00
2022-11-19T18:09:03.094Z,101515.94
2022-11-19T18:11:33.708Z,101512.88
2022-11-19T18:14:09.938Z,101508.78
2022-11-19T18:16:42.788Z,101505.63
2022-11-19T18:19:16.832Z,101514.41
2022-11-19T18:21:48.566Z,101509.56
2022-11-19T18:24:21.285Z,101500.63
2022-11-19T18:26:51.016Z,101500.38
2022-11-19T18:29:21.044Z,101502.63
2022-11-19T18:31:53.506Z,101496.31
2022-11-19T18:34:25.528Z,101485.81
2022-11-19T18:36:55.256Z,101492.69
2022-11-19T18:39:28.055Z,101493.38
2022-11-19T18:41:58.532Z,101494.94
2022-11-19T18:44:35.088Z,101506.88
2022-11-19T18:47:06.778Z,101506.66
2022-11-19T18:49:36.559Z,101506.53
2022-11-19T18:52:08.938Z,101508.88
2022-11-19T18:54:41.276Z,101509.56
2022-11-19T18:57:12.101Z,101508.44
2022-11-19T18:59:41.975Z,101514.28
2022-11-19T19:02:12.916Z,101512.47
2022-11-19T19:04:42.974Z,101514.03
2022-11-19T19:07:13.357Z,101508.75
2022-11-19T19:09:46.047Z,101521.59
2022-11-19T19:12:22.382Z,101517.19
2022-11-19T19:14:54.752Z,101512.66
2022-11-19T19:17:24.608Z,101518.75
2022-11-19T19:19:54.319Z,101502.94
2022-11-19T19:22:24.249Z,101509.03
2022-11-19T19:24:58.299Z,101513.34
2022-11-19T19:27:28.506Z,101503.72
2022-11-19T19:29:58.416Z,101504.50
2022-11-19T19:32:28.135Z,101497.53
2022-11-19T19:34:58.058Z,101494.94
2022-11-19T19:37:27.811Z,101491.41
2022-11-19T19:40:00.300Z,101486.22
2022-11-19T19:42:31.695Z,101483.53
2022-11-19T19:45:01.465Z,101488.72
2022-11-19T19:47:31.145Z,101480.81
2022-11-19T19:50:00.890Z,101481.69
2022-11-19T19:52:30.575Z,101485.09
2022-11-19T19:55:04.201Z,101474.72
2022-11-19T19:57:33.959Z,101467.72
2022-11-19T20:00:03.701Z,101466.94
2022-11-19T20:02:33.533Z,101462.63
2022-11-19T20:05:03.267Z,101459.94
2022-11-19T20:07:33.255Z,101465.91
2022-11-19T20:10:05.641Z,101465.91
2022-11-19T20:12:47.579Z,101456.31
2022-11-19T20:15:17.420Z,101453.59
2022-11-19T20:17:47.209Z,101464.78
2022-11-19T20:20:17.432Z,101461.16
2022-11-19T20:22:47.671Z,101464.63
2022-11-19T20:25:21.186Z,101465.66
2022-11-19T20:27:50.980Z,101469.28
2022-11-19T20:30:20.936Z,101475.50
2022-11-19T20:32:50.691Z,101480.94
2022-11-19T20:35:20.426Z,101462.09
2022-11-19T20:37:50.148Z,101469.97
2022-11-19T20:40:22.660Z,101469.44
2022-11-19T20:43:04.907Z,101467.88
2022-11-19T20:45:34.682Z,101468.09
2022-11-19T20:48:04.844Z,101470.69
2022-11-19T20:50:34.568Z,101473.44
2022-11-19T20:53:04.291Z,101461.34
2022-11-19T20:55:48.548Z,101458.09
2022-11-19T20:58:26.815Z,101461.81
2022-11-19T21:01:02.277Z,101466.22
2022-11-19T21:03:32.207Z,101466.47
2022-11-19T21:06:03.533Z,101463.19
2022-11-19T21:08:35.095Z,101470.44
2022-11-19T21:11:12.676Z,101476.63
2022-11-19T21:13:42.834Z,101468.28
2022-11-19T21:16:15.819Z,101475.53
2022-11-19T21:18:46.045Z,101466.41
2022-11-19T21:21:17.476Z,101454.53
2022-11-19T21:23:47.409Z,101460.88
2022-11-19T21:26:21.693Z,101456.81
2022-11-19T21:28:53.651Z,101452.75
2022-11-19T21:31:37.926Z,101452.06
2022-11-19T21:34:08.454Z,101449.72
2022-11-19T21:36:38.415Z,101452.53
2022-11-19T21:39:09.931Z,101454.34
2022-11-19T21:41:42.491Z,101455.50
2022-11-19T21:44:18.075Z,101453.88
2022-11-19T21:46:50.920Z,101443.63
2022-11-19T21:49:21.179Z,101439.44
2022-11-19T21:51:51.313Z,101432.66
2022-11-19T21:54:21.136Z,101435.25
2022-11-19T21:56:53.553Z,101431.88
2022-11-19T21:59:24.394Z,101437.28
2022-11-19T22:01:55.034Z,101430.41
2022-11-19T22:04:24.979Z,101437.28
2022-11-19T22:06:54.698Z,101434.94
2022-11-19T22:09:24.420Z,101434.94
2022-11-19T22:11:57.070Z,101434.94
2022-11-19T22:14:27.062Z,101427.22
2022-11-19T22:16:57.102Z,101429.94
2022-11-19T22:19:26.882Z,101423.06
2022-11-19T22:21:56.543Z,101424.06
2022-11-19T22:24:26.184Z,101423.28
2022-11-19T22:26:58.774Z,101425.09
2022-11-19T22:29:28.662Z,101424.16
2022-11-19T22:31:58.342Z,101410.97
2022-11-19T22:34:29.320Z,101416.16
2022-11-19T22:36:59.055Z,101408.25
2022-11-19T22:39:29.009Z,101410.97
2022-11-19T22:42:02.025Z,101403.28
2022-11-19T22:44:31.705Z,101411.16
2022-11-19T22:47:02.626Z,101400.00
2022-11-19T22:49:33.180Z,101405.28
2022-11-19T22:52:02.908Z,101406.22
2022-11-19T22:54:38.653Z,101407.13
2022-11-19T22:57:14.089Z,101409.81
2022-11-19T22:59:43.814Z,101404.59
2022-11-19T23:02:13.526Z,101406.31
2022-11-19T23:04:43.266Z,101404.72
2022-11-19T23:07:13.005Z,101401.25
2022-11-19T23:09:42.751Z,101408.22
2022-11-19T23:12:27.523Z,101417.84
2022-11-19T23:14:57.378Z,101412.66
2022-11-19T23:17:27.175Z,101411.84
2022-11-19T23:20:01.613Z,101413.63
2022-11-19T23:22:34.098Z,101418.84
2022-11-19T23:25:04.035Z,101412.88
2022-11-19T23:27:36.586Z,101416.59
2022-11-19T23:30:07.142Z,101414.88
2022-11-19T23:32:36.888Z,101407.19
2022-11-19T23:35:07.200Z,101412.63
2022-11-19T23:37:36.854Z,101402.34
2022-11-19T23:40:07.143Z,101408.56
2022-11-19T23:42:39.436Z,101410.34
2022-11-19T23:45:10.088Z,101396.47
2022-11-19T23:47:40.212Z,101397.13
2022-11-19T23:50:11.220Z,101394.41
2022-11-19T23:52:40.927Z,101387.31
2022-11-19T23:55:11.110Z,101388.09
2022-11-19T23:57:43.432Z,101383.59
